Time;durP1;ratioP1;P1;durP2;ratioP2;P2;SDS_P1;SDS_P2;PMS_P1;PMS_P2;Temp;Humidity;BMP_temperature;BMP_pressure;BME280_temperature;BME280_humidity;BME280_pressure;Samples;Min_cycle;Max_cycle;Signal;HPM_P1;HPM_P2
2023/01/01 17:55:15;;;;;;;12.77;4.55;;;17.60;99.90;;;;;;5092263;27;20451;-69
2023/01/01 17:57:41;;;;;;;14.18;4.78;;;17.50;99.90;;;;;;5092945;28;20020;-73
2023/01/01 18:00:09;;;;;;;13.45;4.45;;;17.50;99.90;;;;;;5092410;28;20081;-73
2023/01/01 18:02:38;;;;;;;12.27;4.18;;;17.40;99.90;;;;;;5092144;28;20044;-73
2023/01/01 18:05:04;;;;;;;13.55;4.88;;;17.40;99.90;;;;;;5090559;28;20024;-76
2023/01/01 18:07:30;;;;;;;11.13;4.72;;;17.40;99.90;;;;;;5091654;28;20024;-74
2023/01/01 18:09:56;;;;;;;11.30;4.10;;;17.40;99.90;;;;;;5082116;28;20457;-74
2023/01/01 18:12:22;;;;;;;9.40;3.90;;;17.30;99.90;;;;;;5085510;28;20038;-71
2023/01/01 18:14:48;;;;;;;10.25;3.63;;;17.30;99.90;;;;;;5090848;28;20086;-77
2023/01/01 18:17:17;;;;;;;8.52;3.95;;;17.30;99.90;;;;;;5083437;28;20031;-74
2023/01/01 18:19:44;;;;;;;8.77;3.75;;;17.30;99.90;;;;;;5082548;28;20029;-74
2023/01/01 18:22:11;;;;;;;11.75;3.83;;;17.20;99.90;;;;;;5088074;28;20052;-74
2023/01/01 18:24:37;;;;;;;10.35;4.15;;;17.20;99.90;;;;;;5083681;28;20293;-73
2023/01/01 18:27:03;;;;;;;10.55;4.18;;;17.20;99.90;;;;;;5089601;28;20081;-77
2023/01/01 18:29:29;;;;;;;11.95;4.15;;;17.20;99.90;;;;;;5091421;28;20036;-73
2023/01/01 18:31:55;;;;;;;8.68;3.63;;;17.20;99.90;;;;;;5091133;28;20335;-76
2023/01/01 18:34:21;;;;;;;9.77;3.70;;;17.20;99.90;;;;;;5090872;28;20102;-75
2023/01/01 18:36:47;;;;;;;9.30;3.35;;;17.20;99.90;;;;;;5089167;28;20250;-73
2023/01/01 18:39:28;;;;;;;9.30;4.05;;;17.20;99.90;;;;;;5086146;28;20032;-69
2023/01/01 18:42:05;;;;;;;10.32;4.20;;;17.20;99.90;;;;;;5090641;28;20035;-70
2023/01/01 18:44:32;;;;;;;9.02;3.65;;;17.20;99.90;;;;;;5085859;28;20136;-68
2023/01/01 18:47:12;;;;;;;8.60;4.05;;;17.20;99.90;;;;;;5089030;28;20097;-70
2023/01/01 18:49:41;;;;;;;7.78;3.47;;;17.10;99.90;;;;;;5084501;28;20454;-69
2023/01/01 18:52:07;;;;;;;8.35;3.78;;;17.10;99.90;;;;;;5083944;28;20040;-73
2023/01/01 18:54:34;;;;;;;10.27;3.90;;;17.10;99.90;;;;;;5081841;28;20036;-71
2023/01/01 18:57:21;;;;;;;6.40;3.42;;;17.10;99.90;;;;;;5084923;28;20446;-70
2023/01/01 18:59:47;;;;;;;8.57;3.83;;;17.10;99.90;;;;;;5086107;28;20078;-69
2023/01/01 19:02:20;;;;;;;8.30;3.42;;;17.10;99.90;;;;;;5086505;28;20421;-69
2023/01/01 19:04:46;;;;;;;8.50;4.43;;;17.10;99.90;;;;;;5085303;28;20028;-69
2023/01/01 19:07:13;;;;;;;10.43;3.70;;;17.10;99.90;;;;;;5074651;28;20041;-70
2023/01/01 19:09:39;;;;;;;10.30;3.65;;;17.10;99.90;;;;;;5074923;28;20036;-69
2023/01/01 19:12:11;;;;;;;7.50;3.90;;;17.10;99.90;;;;;;5074096;28;20036;-70
2023/01/01 19:14:38;;;;;;;8.73;4.07;;;17.10;99.90;;;;;;5074107;28;20214;-69
2023/01/01 19:17:13;;;;;;;9.25;3.50;;;17.00;99.90;;;;;;5071498;28;20020;-71
2023/01/01 19:19:40;;;;;;;8.63;3.60;;;17.00;99.90;;;;;;5070660;28;20024;-71
2023/01/01 19:22:35;;;;;;;9.43;4.18;;;17.00;99.90;;;;;;5074379;28;20082;-72
2023/01/01 19:25:07;;;;;;;8.82;3.60;;;17.00;99.90;;;;;;5053418;28;20045;-72
2023/01/01 19:27:34;;;;;;;10.13;4.07;;;17.00;99.90;;;;;;5055067;28;20037;-69
2023/01/01 19:30:00;;;;;;;8.35;3.80;;;17.00;99.90;;;;;;5054845;28;20041;-72
2023/01/01 19:32:26;;;;;;;8.15;3.60;;;17.00;99.90;;;;;;5053544;28;20107;-71
2023/01/01 19:34:54;;;;;;;8.70;4.15;;;17.00;99.90;;;;;;5053374;28;20420;-72
2023/01/01 19:37:20;;;;;;;8.18;3.40;;;17.00;99.90;;;;;;5054957;28;20044;-68
2023/01/01 19:39:49;;;;;;;8.23;3.95;;;17.00;99.90;;;;;;5057241;28;20028;-69
2023/01/01 19:42:15;;;;;;;8.43;3.80;;;17.00;99.90;;;;;;5073267;28;20047;-69
2023/01/01 19:44:41;;;;;;;8.32;3.50;;;17.00;99.90;;;;;;5073206;28;20048;-68
2023/01/01 19:47:08;;;;;;;8.27;3.65;;;17.00;99.90;;;;;;5074669;28;20067;-73
2023/01/01 19:49:33;;;;;;;8.70;4.15;;;16.90;99.90;;;;;;5074595;28;20029;-70
2023/01/01 19:51:59;;;;;;;9.05;4.40;;;16.90;99.90;;;;;;5073567;28;20120;-69
2023/01/01 19:54:25;;;;;;;8.15;4.15;;;16.90;99.90;;;;;;5073120;28;20048;-69
2023/01/01 19:56:51;;;;;;;9.23;4.38;;;16.90;99.90;;;;;;5090721;28;20036;-72
2023/01/01 19:59:17;;;;;;;6.60;3.78;;;16.90;99.90;;;;;;5074746;28;20032;-68
2023/01/01 20:01:43;;;;;;;8.40;3.97;;;16.90;99.90;;;;;;5072592;28;20089;-68
2023/01/01 20:04:09;;;;;;;6.65;3.67;;;16.90;99.90;;;;;;5066008;28;20416;-71
2023/01/01 20:06:36;;;;;;;7.80;3.80;;;16.90;99.90;;;;;;5072388;28;20020;-69
2023/01/01 20:09:02;;;;;;;9.52;4.07;;;16.90;99.90;;;;;;5075629;28;20030;-68
2023/01/01 20:11:30;;;;;;;11.23;3.50;;;16.90;99.90;;;;;;5075043;28;20111;-71
2023/01/01 20:13:56;;;;;;;10.77;3.88;;;16.90;99.90;;;;;;5075023;28;20086;-69
2023/01/01 20:16:22;;;;;;;13.25;4.80;;;16.90;99.90;;;;;;5072939;28;20024;-71
2023/01/01 20:18:48;;;;;;;12.35;4.75;;;16.90;99.90;;;;;;5039988;28;20029;-69
2023/01/01 20:24:01;;;;;;;16.58;5.10;;;16.90;99.90;;;;;;5069185;28;20045;-70
2023/01/01 20:26:27;;;;;;;14.75;5.32;;;17.00;99.90;;;;;;5075813;28;20033;-69
2023/01/01 20:31:37;;;;;;;13.68;5.03;;;17.00;99.90;;;;;;5071717;28;20035;-68
2023/01/01 20:34:03;;;;;;;11.52;5.13;;;17.00;99.90;;;;;;5075223;28;20020;-70
2023/01/01 20:39:14;;;;;;;12.50;5.40;;;17.00;99.90;;;;;;5074390;28;20029;-72
2023/01/01 20:41:40;;;;;;;15.10;4.75;;;17.00;99.90;;;;;;5074477;28;20029;-73
2023/01/01 20:44:05;;;;;;;15.50;5.50;;;17.00;99.90;;;;;;5075793;28;20039;-72
2023/01/01 20:46:32;;;;;;;12.32;4.80;;;17.10;99.90;;;;;;5073578;28;20034;-70
2023/01/01 20:48:58;;;;;;;10.70;4.90;;;17.10;99.90;;;;;;5072847;28;20056;-69
2023/01/01 20:51:26;;;;;;;12.70;5.03;;;17.10;99.90;;;;;;5066266;28;20040;-70
2023/01/01 20:53:52;;;;;;;13.40;4.97;;;17.10;99.90;;;;;;5071739;28;20047;-70
2023/01/01 20:56:18;;;;;;;13.20;5.13;;;17.10;99.90;;;;;;5069388;28;20028;-70
2023/01/01 20:58:44;;;;;;;8.30;4.57;;;17.20;99.90;;;;;;5064826;28;20095;-76
2023/01/01 21:01:10;;;;;;;10.70;4.93;;;17.20;99.90;;;;;;5079457;28;20032;-70
2023/01/01 21:03:36;;;;;;;11.27;4.53;;;17.20;99.90;;;;;;5075063;28;20033;-71
2023/01/01 21:06:02;;;;;;;12.38;4.72;;;17.20;99.90;;;;;;5075356;28;20033;-71
2023/01/01 21:08:28;;;;;;;10.65;4.47;;;17.20;99.90;;;;;;5075224;28;20032;-71
2023/01/01 21:10:54;;;;;;;9.82;4.53;;;17.20;99.90;;;;;;5075394;28;20068;-72
2023/01/01 21:13:22;;;;;;;11.80;4.63;;;17.20;99.90;;;;;;5073199;28;20060;-72
2023/01/01 21:15:48;;;;;;;10.25;4.45;;;17.20;99.90;;;;;;5071494;28;20029;-72
2023/01/01 21:18:14;;;;;;;9.27;4.30;;;17.20;99.90;;;;;;5074446;28;20121;-72
2023/01/01 21:20:46;;;;;;;7.28;4.15;;;17.20;99.90;;;;;;5071582;28;20107;-74
2023/01/01 21:23:26;;;;;;;8.93;4.15;;;17.20;99.90;;;;;;5074342;28;20029;-71
2023/01/01 21:25:52;;;;;;;8.07;3.83;;;17.20;99.90;;;;;;5073597;28;20308;-71
2023/01/01 21:28:18;;;;;;;10.30;4.22;;;17.20;99.90;;;;;;5075318;28;20029;-71
2023/01/01 21:30:51;;;;;;;11.18;4.53;;;17.20;99.90;;;;;;5075600;28;20094;-71
2023/01/01 21:33:29;;;;;;;9.43;3.90;;;17.20;99.90;;;;;;5074779;28;20032;-71
2023/01/01 21:35:56;;;;;;;9.77;4.60;;;17.30;99.90;;;;;;5075076;28;20028;-71
2023/01/01 21:38:26;;;;;;;12.85;3.63;;;17.20;99.90;;;;;;5075035;28;20035;-71
2023/01/01 21:40:58;;;;;;;10.07;4.03;;;17.20;99.90;;;;;;5074978;28;20439;-71
2023/01/01 21:43:50;;;;;;;9.40;3.80;;;17.30;99.90;;;;;;5073673;28;20033;-71
2023/01/01 21:46:21;;;;;;;6.45;3.40;;;17.30;99.90;;;;;;5072573;28;20032;-71
2023/01/01 21:49:20;;;;;;;9.32;4.15;;;17.20;99.90;;;;;;5074215;28;20056;-70
2023/01/01 21:51:53;;;;;;;7.55;3.78;;;17.30;99.90;;;;;;5073475;28;20024;-71
2023/01/01 21:54:39;;;;;;;6.80;3.50;;;17.20;99.90;;;;;;5075157;28;20352;-71
2023/01/01 21:57:22;;;;;;;10.10;3.67;;;17.30;99.90;;;;;;5075328;28;20032;-71
2023/01/01 21:59:50;;;;;;;11.43;3.80;;;17.30;99.90;;;;;;5075371;28;20024;-71
2023/01/01 22:02:16;;;;;;;11.18;4.10;;;17.20;99.90;;;;;;5074936;28;20032;-71
2023/01/01 22:04:43;;;;;;;7.43;3.75;;;17.30;99.90;;;;;;5074593;28;20763;-71
2023/01/01 22:07:37;;;;;;;7.43;3.28;;;17.20;99.90;;;;;;5074781;28;20028;-71
2023/01/01 22:10:17;;;;;;;6.45;3.38;;;17.30;99.90;;;;;;5075115;28;20108;-71
2023/01/01 22:12:44;;;;;;;7.85;3.67;;;17.20;99.90;;;;;;5074838;28;20583;-72
2023/01/01 22:15:28;;;;;;;7.35;3.42;;;17.30;99.90;;;;;;5074958;28;20059;-71
2023/01/01 22:18:21;;;;;;;7.97;3.40;;;17.20;99.90;;;;;;5073807;28;20039;-71
2023/01/01 22:20:47;;;;;;;6.72;2.97;;;17.20;99.90;;;;;;5072934;28;20021;-73
2023/01/01 22:23:19;;;;;;;6.68;3.42;;;17.20;99.90;;;;;;5074174;28;20028;-71
2023/01/01 22:25:46;;;;;;;7.00;3.28;;;17.20;99.90;;;;;;5073472;28;20107;-71
2023/01/01 22:28:27;;;;;;;6.38;2.85;;;17.20;99.90;;;;;;5074906;28;20039;-70
2023/01/01 22:31:00;;;;;;;6.97;2.88;;;17.20;99.90;;;;;;5074760;28;20029;-70
2023/01/01 22:33:35;;;;;;;7.97;3.47;;;17.20;99.90;;;;;;5073351;28;20042;-71
2023/01/01 22:36:02;;;;;;;6.35;3.38;;;17.20;99.90;;;;;;5074357;28;20016;-70
2023/01/01 22:38:32;;;;;;;6.57;2.88;;;17.20;99.90;;;;;;5073956;28;20029;-71
2023/01/01 22:40:58;;;;;;;7.05;3.08;;;17.20;99.90;;;;;;5075545;28;20051;-71
2023/01/01 22:43:30;;;;;;;6.47;3.10;;;17.20;99.90;;;;;;5078049;28;20086;-71
2023/01/01 22:46:01;;;;;;;5.32;3.05;;;17.20;99.90;;;;;;5076221;28;20031;-71
2023/01/01 22:48:36;;;;;;;6.45;3.08;;;17.20;99.90;;;;;;5077200;28;20029;-72
2023/01/01 22:51:26;;;;;;;5.32;2.58;;;17.30;99.90;;;;;;5077664;28;20025;-73
2023/01/01 22:53:53;;;;;;;4.95;2.65;;;17.20;99.90;;;;;;5076029;28;20128;-72
2023/01/01 22:56:18;;;;;;;6.35;2.85;;;17.20;99.90;;;;;;5078006;28;20103;-74
2023/01/01 22:58:44;;;;;;;6.13;3.08;;;17.20;99.90;;;;;;5077478;28;20021;-73
2023/01/01 23:01:10;;;;;;;6.10;2.95;;;17.20;99.90;;;;;;5053574;28;20036;-73
2023/01/01 23:03:36;;;;;;;5.50;2.78;;;17.20;99.90;;;;;;5076300;28;20419;-72
2023/01/01 23:06:02;;;;;;;7.53;3.78;;;17.20;99.90;;;;;;5075468;28;20085;-72
2023/01/01 23:08:29;;;;;;;6.60;3.00;;;17.20;99.90;;;;;;5077129;28;20089;-80
2023/01/01 23:10:57;;;;;;;6.00;2.75;;;17.20;99.90;;;;;;5076951;28;20036;-72
2023/01/01 23:16:07;;;;;;;4.20;2.28;;;17.20;99.90;;;;;;5076760;28;20064;-72
2023/01/01 23:18:35;;;;;;;5.68;2.58;;;17.20;99.90;;;;;;5076120;28;20028;-73
2023/01/01 23:21:07;;;;;;;5.57;2.90;;;17.20;99.90;;;;;;5077518;28;20024;-73
2023/01/01 23:23:33;;;;;;;5.03;2.60;;;17.20;99.90;;;;;;5076198;28;20021;-74
2023/01/01 23:26:00;;;;;;;6.47;2.33;;;17.20;99.90;;;;;;5076614;28;20028;-73
2023/01/01 23:28:28;;;;;;;9.43;2.50;;;17.20;99.90;;;;;;5076699;28;20097;-74
2023/01/01 23:30:56;;;;;;;5.85;2.80;;;17.20;99.90;;;;;;5076861;28;20112;-74
2023/01/01 23:33:22;;;;;;;5.75;2.58;;;17.20;99.90;;;;;;5075184;28;20071;-73
2023/01/01 23:35:48;;;;;;;4.78;2.28;;;17.20;99.90;;;;;;5076121;28;20032;-75
2023/01/01 23:38:15;;;;;;;5.05;2.55;;;17.20;99.90;;;;;;5076625;28;20028;-73
2023/01/01 23:40:41;;;;;;;4.70;2.47;;;17.20;99.90;;;;;;5076377;28;20067;-73
2023/01/01 23:43:07;;;;;;;6.32;3.03;;;17.20;99.90;;;;;;5064255;28;20056;-73
2023/01/01 23:45:35;;;;;;;4.70;2.42;;;17.20;99.90;;;;;;5057063;28;20032;-72
2023/01/01 23:48:02;;;;;;;5.13;2.80;;;17.20;99.90;;;;;;5056688;28;20029;-74
2023/01/01 23:50:28;;;;;;;4.28;2.15;;;17.20;99.90;;;;;;5056017;28;20029;-71
2023/01/01 23:52:54;;;;;;;5.65;2.35;;;17.20;99.90;;;;;;5056355;28;20326;-71
2023/01/01 23:55:20;;;;;;;5.93;2.50;;;17.20;99.90;;;;;;5056670;28;20029;-71
2023/01/01 23:57:46;;;;;;;6.60;2.55;;;17.20;99.90;;;;;;5055915;28;20122;-71
